createdAt,value
2023-05-15T00:00:20.912Z,952.6500
2023-05-15T00:01:27.901Z,952.6512
2023-05-15T00:06:05.340Z,952.6265
2023-05-15T00:08:07.159Z,952.5992
2023-05-15T00:09:08.601Z,952.5933
2023-05-15T00:10:09.519Z,952.5904
2023-05-15T00:11:11.585Z,952.5771
2023-05-15T00:12:13.503Z,952.5775
2023-05-15T00:13:15.012Z,952.5704
2023-05-15T00:14:15.685Z,952.5635
2023-05-15T00:15:16.929Z,952.5458
2023-05-15T00:16:19.457Z,952.5321
2023-05-15T00:17:20.140Z,952.5154
2023-05-15T00:18:20.241Z,952.5052
2023-05-15T00:19:22.469Z,952.4968
2023-05-15T00:24:29.236Z,952.4631
2023-05-15T00:25:29.838Z,952.4561
2023-05-15T00:30:07.966Z,952.4409
2023-05-15T00:31:10.223Z,952.4426
2023-05-15T00:32:10.370Z,952.4424
2023-05-15T00:33:11.148Z,952.4435
2023-05-15T00:34:12.462Z,952.4363
2023-05-15T00:35:13.241Z,952.4296
2023-05-15T00:36:14.234Z,952.4360
2023-05-15T00:37:15.863Z,952.4313
2023-05-15T00:38:17.942Z,952.4325
2023-05-15T00:39:18.053Z,952.4409
2023-05-15T00:40:20.217Z,952.4554
2023-05-15T00:41:22.393Z,952.4554
2023-05-15T00:42:24.571Z,952.4738
2023-05-15T00:44:26.462Z,952.4933
2023-05-15T00:45:28.615Z,952.4916
2023-05-15T01:00:48.260Z,952.4465
2023-05-15T01:01:49.176Z,952.4529
2023-05-15T01:02:51.216Z,952.4400
2023-05-15T01:03:52.520Z,952.4338
2023-05-15T01:04:53.788Z,952.4358
2023-05-15T01:05:54.978Z,952.4424
2023-05-15T01:06:55.569Z,952.4465
2023-05-15T01:07:56.727Z,952.4604
2023-05-15T01:08:57.829Z,952.4715
2023-05-15T01:09:59.458Z,952.4796
2023-05-15T01:11:02.049Z,952.4825
2023-05-15T01:12:02.860Z,952.4829
2023-05-15T01:13:04.235Z,952.4800
2023-05-15T01:14:06.439Z,952.4859
2023-05-15T01:15:08.633Z,952.4872
2023-05-15T01:16:10.029Z,952.4882
2023-05-15T01:20:16.145Z,952.5293
2023-05-15T01:21:17.743Z,952.5258
2023-05-15T01:22:18.241Z,952.5187
2023-05-15T01:23:19.742Z,952.5127
2023-05-15T01:24:21.343Z,952.4952
2023-05-15T01:25:21.361Z,952.4915
2023-05-15T01:26:22.124Z,952.4908
2023-05-15T01:27:22.773Z,952.4830
2023-05-15T01:28:24.663Z,952.4833
2023-05-15T01:29:24.722Z,952.4875
2023-05-15T01:30:25.340Z,952.4948
2023-05-15T01:31:25.921Z,952.4926
2023-05-15T01:32:26.371Z,952.4904
2023-05-15T01:33:27.429Z,952.4846
2023-05-15T01:34:29.234Z,952.4775
2023-05-15T01:35:31.139Z,952.4675
2023-05-15T01:36:31.442Z,952.4573
2023-05-15T01:37:33.133Z,952.4442
2023-05-15T01:38:35.193Z,952.4409
2023-05-15T01:39:37.096Z,952.4477
2023-05-15T01:40:37.821Z,952.4500
2023-05-15T01:41:38.862Z,952.4504
2023-05-15T01:42:39.167Z,952.4600
2023-05-15T01:43:39.349Z,952.4588
2023-05-15T01:44:41.754Z,952.4650
2023-05-15T01:45:41.889Z,952.4719
2023-05-15T01:46:43.774Z,952.4846
2023-05-15T01:47:44.447Z,952.4969
2023-05-15T01:48:45.702Z,952.5071
2023-05-15T01:49:46.750Z,952.5212
2023-05-15T01:50:49.609Z,952.5359
2023-05-15T01:51:50.484Z,952.5433
2023-05-15T01:52:51.469Z,952.5483
2023-05-15T01:53:54.046Z,952.5600
2023-05-15T01:55:55.974Z,952.5626
2023-05-15T01:56:58.617Z,952.5677
2023-05-15T01:58:01.022Z,952.5800
2023-05-15T01:59:01.197Z,952.5880
2023-05-15T02:00:02.872Z,952.5950
2023-05-15T02:01:05.202Z,952.6180
2023-05-15T02:02:06.590Z,952.6180
2023-05-15T02:03:07.867Z,952.6138
2023-05-15T02:05:09.110Z,952.5670
2023-05-15T02:06:09.900Z,952.5450
2023-05-15T02:07:11.870Z,952.5256
2023-05-15T02:08:14.580Z,952.5041
2023-05-15T02:09:16.275Z,952.4808
2023-05-15T02:10:17.464Z,952.4692
2023-05-15T02:11:18.626Z,952.4753
2023-05-15T02:18:25.664Z,952.4338
2023-05-15T02:19:26.617Z,952.4200
2023-05-15T02:20:28.226Z,952.4144
2023-05-15T02:21:28.531Z,952.4081
2023-05-15T02:22:29.195Z,952.3997
2023-05-15T02:23:29.373Z,952.3885
2023-05-15T02:24:30.560Z,952.3762
2023-05-15T02:25:32.740Z,952.3712
2023-05-15T02:26:32.941Z,952.3688
2023-05-15T02:27:35.048Z,952.3604
2023-05-15T02:28:35.685Z,952.3612
2023-05-15T02:29:37.075Z,952.3583
2023-05-15T02:31:38.787Z,952.3441
2023-05-15T02:32:39.924Z,952.3400
2023-05-15T02:33:41.686Z,952.3321
2023-05-15T02:34:43.603Z,952.3511
2023-05-15T02:35:44.288Z,952.3669
2023-05-15T02:36:45.952Z,952.3723
2023-05-15T02:37:46.455Z,952.3715
2023-05-15T02:39:46.806Z,952.3688
2023-05-15T02:40:48.041Z,952.3646
2023-05-15T02:41:49.857Z,952.3683
2023-05-15T02:42:50.236Z,952.3630
2023-05-15T02:43:51.353Z,952.3562
2023-05-15T02:44:53.845Z,952.3517
2023-05-15T02:46:56.378Z,952.3292
2023-05-15T02:47:57.372Z,952.3285
2023-05-15T02:48:59.240Z,952.3159
2023-05-15T02:50:01.582Z,952.3231
2023-05-15T02:53:04.780Z,952.2980
2023-05-15T02:54:05.174Z,952.2912
2023-05-15T02:55:05.860Z,952.2808
2023-05-15T02:56:07.619Z,952.2755
2023-05-15T02:57:09.485Z,952.2776
2023-05-15T02:58:10.300Z,952.2715
2023-05-15T02:59:10.907Z,952.2620
2023-05-15T03:00:11.493Z,952.2604
2023-05-15T03:01:12.245Z,952.2604
2023-05-15T03:02:14.068Z,952.2623
2023-05-15T03:03:15.948Z,952.2588
2023-05-15T03:04:17.079Z,952.2496
2023-05-15T03:05:18.402Z,952.2412
2023-05-15T03:06:20.473Z,952.2304
2023-05-15T03:07:22.447Z,952.2322
2023-05-15T03:08:25.238Z,952.2430
2023-05-15T03:13:27.808Z,952.2648
2023-05-15T03:14:28.362Z,952.2792
2023-05-15T03:15:29.949Z,952.2773
2023-05-15T03:16:30.826Z,952.2773
2023-05-15T03:17:31.934Z,952.2700
2023-05-15T03:18:32.375Z,952.2535
2023-05-15T03:19:34.444Z,952.2482
2023-05-15T03:20:35.566Z,952.2354
2023-05-15T03:21:36.481Z,952.2321
2023-05-15T03:22:38.090Z,952.2283
2023-05-15T03:23:47.035Z,952.2288
2023-05-15T03:33:26.674Z,952.1703
2023-05-15T03:34:28.405Z,952.1780
2023-05-15T03:35:28.473Z,952.1885
2023-05-15T03:36:29.926Z,952.2146
2023-05-15T03:37:30.997Z,952.2350
2023-05-15T03:38:32.471Z,952.2396
2023-05-15T03:39:32.626Z,952.2496
2023-05-15T03:40:35.218Z,952.2545
2023-05-15T03:41:36.357Z,952.2596
2023-05-15T03:42:38.370Z,952.2511
2023-05-15T03:44:38.540Z,952.2385
2023-05-15T03:46:40.757Z,952.2428
2023-05-15T03:47:43.617Z,952.2376
2023-05-15T03:48:43.621Z,952.2365
2023-05-15T03:49:45.514Z,952.2354
2023-05-15T03:50:46.635Z,952.2342
2023-05-15T03:51:48.177Z,952.2245
2023-05-15T03:52:49.319Z,952.2196
2023-05-15T03:53:50.877Z,952.2200
2023-05-15T03:54:52.305Z,952.2167
2023-05-15T03:55:52.701Z,952.2156
2023-05-15T03:56:54.055Z,952.2250
2023-05-15T03:57:55.812Z,952.2281
2023-05-15T03:58:56.678Z,952.2308
2023-05-15T03:59:58.619Z,952.2279
2023-05-15T04:00:59.628Z,952.2335
2023-05-15T04:02:04.167Z,952.2496
2023-05-15T04:03:03.206Z,952.2582
2023-05-15T04:06:07.414Z,952.2919
2023-05-15T04:07:08.033Z,952.3091
2023-05-15T04:09:09.104Z,952.3458
2023-05-15T04:10:10.903Z,952.3646
2023-05-15T04:11:11.585Z,952.3743
2023-05-15T04:12:12.323Z,952.3832
2023-05-15T04:13:12.752Z,952.3957
2023-05-15T04:14:13.612Z,952.3962
2023-05-15T04:15:13.882Z,952.4050
2023-05-15T04:16:15.165Z,952.4048
2023-05-15T04:17:16.185Z,952.4112
2023-05-15T04:18:17.637Z,952.4135
2023-05-15T04:19:17.717Z,952.4243
2023-05-15T04:20:18.579Z,952.4326
2023-05-15T04:21:19.204Z,952.4404
2023-05-15T04:33:32.481Z,952.4869
2023-05-15T04:36:34.903Z,952.5167
2023-05-15T04:37:36.891Z,952.5219
2023-05-15T04:38:38.391Z,952.5188
2023-05-15T04:39:38.624Z,952.5204
2023-05-15T04:40:40.708Z,952.5134
2023-05-15T04:41:41.321Z,952.5115
2023-05-15T04:42:43.447Z,952.5084
2023-05-15T04:43:46.256Z,952.5100
2023-05-15T04:48:49.236Z,952.4864
2023-05-15T04:49:51.557Z,952.4700
2023-05-15T04:50:52.705Z,952.4559
2023-05-15T04:53:57.464Z,952.4543
2023-05-15T04:59:00.313Z,952.4617
2023-05-15T05:00:00.763Z,952.4596
2023-05-15T05:01:03.937Z,952.4674
2023-05-15T05:02:02.860Z,952.4640
2023-05-15T05:03:03.272Z,952.4724
2023-05-15T05:04:05.453Z,952.4875
2023-05-15T05:05:07.531Z,952.5042
2023-05-15T05:06:07.667Z,952.5139
2023-05-15T05:07:09.249Z,952.5196
2023-05-15T05:08:11.501Z,952.5342
2023-05-15T05:15:17.323Z,952.5841
2023-05-15T05:16:18.022Z,952.5812
2023-05-15T05:17:19.589Z,952.5889
2023-05-15T05:18:21.827Z,952.5908
2023-05-15T05:19:22.042Z,952.5916
2023-05-15T05:20:24.296Z,952.5996
2023-05-15T05:21:24.680Z,952.6030
2023-05-15T05:30:36.178Z,952.5904
2023-05-15T05:31:36.308Z,952.5880
2023-05-15T05:32:38.636Z,952.5863
2023-05-15T05:33:39.436Z,952.5936
2023-05-15T05:34:39.495Z,952.5932
2023-05-15T05:35:40.620Z,952.5992
2023-05-15T05:36:42.472Z,952.5995
2023-05-15T05:37:43.290Z,952.6035
2023-05-15T05:38:45.243Z,952.6021
2023-05-15T05:39:46.013Z,952.6008
2023-05-15T05:40:48.071Z,952.6071
2023-05-15T05:41:50.300Z,952.6071
2023-05-15T05:42:51.491Z,952.6124
2023-05-15T05:43:54.307Z,952.6254
2023-05-15T05:44:54.271Z,952.6376
2023-05-15T05:45:55.772Z,952.6468
2023-05-15T05:46:57.609Z,952.6512
2023-05-15T05:48:00.224Z,952.6465
2023-05-15T05:49:02.588Z,952.6538
2023-05-15T05:50:03.763Z,952.6603
2023-05-15T05:51:03.766Z,952.6611
2023-05-15T05:52:06.470Z,952.6644
2023-05-15T05:55:07.078Z,952.6962
2023-05-15T05:56:07.162Z,952.7054
2023-05-15T05:57:10.041Z,952.7230
2023-05-15T06:03:14.676Z,952.7744
2023-05-15T06:07:17.633Z,952.8231
2023-05-15T06:08:19.763Z,952.8364
2023-05-15T06:09:19.996Z,952.8469
2023-05-15T06:10:22.146Z,952.8604
2023-05-15T06:11:25.384Z,952.8825
2023-05-15T06:12:25.079Z,952.8918
2023-05-15T06:13:26.680Z,952.8996
2023-05-15T06:14:28.008Z,952.9044
2023-05-15T06:15:28.635Z,952.8996
2023-05-15T06:16:29.088Z,952.8975
2023-05-15T06:17:31.175Z,952.9058
2023-05-15T06:18:31.604Z,952.9152
2023-05-15T06:19:33.832Z,952.9196
2023-05-15T06:20:35.578Z,952.9185
2023-05-15T06:21:38.172Z,952.9127
2023-05-15T06:26:43.487Z,952.9596
2023-05-15T06:27:43.628Z,952.9627
2023-05-15T06:28:43.831Z,952.9719
2023-05-15T06:29:45.382Z,952.9777
2023-05-15T06:30:46.148Z,952.9796
2023-05-15T06:31:48.477Z,952.9713
2023-05-15T06:32:51.124Z,952.9600
2023-05-15T06:34:52.616Z,952.9489
2023-05-15T06:37:56.474Z,952.9457
2023-05-15T06:38:55.562Z,952.9529
2023-05-15T06:39:57.369Z,952.9597
2023-05-15T06:40:58.588Z,952.9815
2023-05-15T06:42:59.267Z,953.0004
2023-05-15T06:48:32.738Z,0.0000
2023-05-15T06:49:33.136Z,0.0000
2023-05-15T06:50:33.511Z,0.0000
2023-05-15T06:51:34.406Z,0.0000
2023-05-15T06:52:34.443Z,0.0000
2023-05-15T06:53:35.002Z,0.0000
2023-05-15T06:54:35.330Z,0.0000
2023-05-15T06:59:38.086Z,0.0000
2023-05-15T07:03:39.961Z,0.0000
2023-05-15T07:04:57.802Z,0.0000
2023-05-15T07:07:15.837Z,953.0466
2023-05-15T07:08:15.853Z,953.0324
2023-05-15T07:09:16.046Z,953.0180
2023-05-15T07:10:17.202Z,953.0116
2023-05-15T07:11:19.143Z,953.0109
2023-05-15T07:12:19.958Z,953.0076
2023-05-15T07:14:21.322Z,953.0023
2023-05-15T07:17:24.597Z,953.0089
2023-05-15T07:18:24.718Z,953.0158
2023-05-15T07:19:25.762Z,953.0324
2023-05-15T07:20:30.307Z,953.0369
2023-05-15T07:21:28.017Z,953.0386
2023-05-15T07:22:28.096Z,953.0446
2023-05-15T07:23:28.436Z,953.0453
2023-05-15T07:24:28.438Z,953.0576
2023-05-15T07:25:30.414Z,953.0750
2023-05-15T07:26:38.441Z,953.0896
2023-05-15T07:27:31.977Z,953.1229
2023-05-15T07:28:32.137Z,953.1377
2023-05-15T07:29:34.021Z,953.1596
2023-05-15T07:30:35.822Z,953.1755
2023-05-15T07:31:37.002Z,953.2108
2023-05-15T07:32:38.442Z,953.2250
2023-05-15T07:33:40.084Z,953.2354
2023-05-15T07:34:40.882Z,953.2488
2023-05-15T07:35:41.057Z,953.2531
2023-05-15T07:36:41.666Z,953.2612
2023-05-15T07:42:47.523Z,953.2844
2023-05-15T07:43:47.723Z,953.2858
2023-05-15T07:44:49.977Z,953.2930
2023-05-15T07:45:50.642Z,953.2972
2023-05-15T07:46:51.937Z,953.2900
2023-05-15T07:47:53.709Z,953.2896
2023-05-15T07:48:52.966Z,953.2892
2023-05-15T07:49:54.133Z,953.2744
2023-05-15T07:50:56.521Z,953.2800
2023-05-15T07:51:57.954Z,953.2762
2023-05-15T07:54:00.114Z,953.2735
2023-05-15T07:56:02.634Z,953.2700
2023-05-15T07:57:02.934Z,953.2523
2023-05-15T07:58:02.813Z,953.2532
2023-05-15T07:59:03.947Z,953.2358
2023-05-15T08:02:07.524Z,953.2173
2023-05-15T08:03:09.197Z,953.1920
2023-05-15T08:11:16.924Z,953.0566
2023-05-15T08:12:18.647Z,953.0712
2023-05-15T08:13:19.392Z,953.0861
2023-05-15T08:14:22.408Z,953.1008
2023-05-15T08:15:23.604Z,953.1017
2023-05-15T08:16:23.669Z,953.0961
2023-05-15T08:17:25.515Z,953.0844
2023-05-15T08:18:27.176Z,953.0685
2023-05-15T08:19:28.074Z,953.0592
2023-05-15T08:20:28.662Z,953.0504
2023-05-15T08:21:29.461Z,953.0635
2023-05-15T08:22:29.708Z,953.0992
2023-05-15T08:23:31.028Z,953.1228
2023-05-15T08:27:35.766Z,953.1558
2023-05-15T08:30:40.258Z,953.1808
2023-05-15T08:31:40.537Z,953.1792
2023-05-15T08:32:41.875Z,953.1864
2023-05-15T08:33:42.318Z,953.1825
2023-05-15T08:34:42.884Z,953.1769
2023-05-15T08:35:43.708Z,953.1696
2023-05-15T08:36:45.221Z,953.1461
2023-05-15T08:37:44.758Z,953.1318
2023-05-15T08:38:46.697Z,953.1320
2023-05-15T08:40:47.150Z,953.0961
2023-05-15T08:41:47.642Z,953.0829
2023-05-15T08:43:49.298Z,953.0840
2023-05-15T08:44:49.813Z,953.0938
2023-05-15T08:45:50.765Z,953.1050
2023-05-15T08:49:52.984Z,953.0965
2023-05-15T08:50:53.871Z,953.0978
2023-05-15T08:51:54.721Z,953.0912
2023-05-15T08:52:56.695Z,953.0720
2023-05-15T08:53:57.248Z,953.0748
2023-05-15T08:54:58.941Z,953.0743
2023-05-15T08:55:59.480Z,953.0662
2023-05-15T08:57:00.898Z,953.0646
2023-05-15T08:58:00.865Z,953.0573
2023-05-15T08:59:03.057Z,953.0707
2023-05-15T09:00:04.277Z,953.0677
2023-05-15T09:02:06.894Z,953.0287
2023-05-15T09:03:07.200Z,953.0300
2023-05-15T09:04:07.367Z,953.0274
2023-05-15T09:05:08.999Z,953.0082
2023-05-15T09:06:10.702Z,953.0038
2023-05-15T09:07:12.561Z,953.0018
2023-05-15T09:08:14.182Z,952.9965
2023-05-15T09:09:15.917Z,953.0014
2023-05-15T09:10:17.205Z,952.9884
2023-05-15T09:11:18.536Z,952.9968
2023-05-15T09:12:51.373Z,952.9950
2023-05-15T09:13:51.530Z,952.9869
2023-05-15T09:15:23.803Z,952.9929
2023-05-15T09:16:25.691Z,953.0044
2023-05-15T09:23:05.516Z,952.9706
2023-05-15T09:24:06.865Z,952.9727
2023-05-15T09:25:08.879Z,952.9689
2023-05-15T09:26:09.968Z,952.9785
2023-05-15T09:27:11.394Z,952.9815
2023-05-15T09:28:12.297Z,952.9857
2023-05-15T09:29:13.555Z,952.9856
2023-05-15T09:30:14.577Z,952.9772
2023-05-15T09:31:14.934Z,952.9562
2023-05-15T09:32:16.871Z,952.9604
2023-05-15T09:33:18.202Z,952.9666
2023-05-15T09:34:18.853Z,952.9525
2023-05-15T09:35:22.898Z,952.9418
2023-05-15T09:36:22.254Z,952.9300
2023-05-15T09:37:23.405Z,952.9227
2023-05-15T09:38:24.807Z,952.9259
2023-05-15T09:39:25.228Z,952.9441
2023-05-15T09:40:26.607Z,952.9459
2023-05-15T09:43:30.408Z,952.9261
2023-05-15T09:44:31.705Z,952.9236
2023-05-15T09:46:32.635Z,952.9211
2023-05-15T09:47:33.069Z,952.9318
2023-05-15T09:48:33.843Z,952.9444
2023-05-15T09:49:34.473Z,952.9518
2023-05-15T09:52:34.819Z,952.9620
2023-05-15T09:55:36.807Z,952.9612
2023-05-15T09:56:37.281Z,952.9487
2023-05-15T09:57:39.574Z,952.9282
2023-05-15T09:58:40.747Z,952.9179
2023-05-15T10:08:49.737Z,952.8731
2023-05-15T10:09:51.461Z,952.8434
2023-05-15T10:11:30.282Z,952.8334
2023-05-15T10:12:31.309Z,952.8317
2023-05-15T10:17:05.161Z,952.8076
2023-05-15T10:18:06.470Z,952.8152
2023-05-15T10:19:07.876Z,952.8085
2023-05-15T10:27:15.211Z,952.7534
2023-05-15T10:31:22.404Z,952.7620
2023-05-15T10:44:36.733Z,952.6292
2023-05-15T10:45:37.927Z,952.6223
2023-05-15T10:46:38.891Z,952.5919
2023-05-15T10:47:39.245Z,952.5588
2023-05-15T10:48:40.954Z,952.5331
2023-05-15T10:52:44.657Z,952.4763
2023-05-15T11:02:21.765Z,952.3804
2023-05-15T11:03:24.119Z,952.3692
2023-05-15T11:05:25.885Z,952.3587
2023-05-15T11:07:26.753Z,952.3308
2023-05-15T11:08:27.075Z,952.3488
2023-05-15T11:13:31.015Z,952.3416
2023-05-15T11:14:32.696Z,952.3463
2023-05-15T11:17:35.056Z,952.3334
2023-05-15T11:24:16.890Z,952.3309
2023-05-15T11:25:20.294Z,952.3389
2023-05-15T11:26:20.666Z,952.3336
2023-05-15T11:27:20.749Z,952.3204
2023-05-15T11:28:23.377Z,952.2978
2023-05-15T11:29:24.351Z,952.2750
2023-05-15T11:30:27.170Z,952.2709
2023-05-15T11:31:28.203Z,952.2365
2023-05-15T11:32:29.515Z,952.2450
2023-05-15T11:33:30.555Z,952.2084
2023-05-15T11:34:30.614Z,952.2230
2023-05-15T11:35:33.763Z,952.2119
2023-05-15T11:41:01.634Z,952.2250
2023-05-15T11:42:01.753Z,952.1976
2023-05-15T11:43:02.533Z,952.1964
2023-05-15T11:44:33.851Z,952.2025
2023-05-15T11:46:36.434Z,952.1765
2023-05-15T11:50:44.235Z,952.1414
2023-05-15T11:52:07.367Z,952.1238
2023-05-15T13:12:24.598Z,951.6104
2023-05-15T13:22:43.622Z,951.5433
2023-05-15T13:23:44.699Z,951.5146
2023-05-15T13:24:45.714Z,951.4892
2023-05-15T13:25:46.878Z,951.4838
2023-05-15T13:27:47.572Z,951.4965
2023-05-15T13:28:48.387Z,951.4988
2023-05-15T13:29:49.564Z,951.4825
2023-05-15T13:30:50.205Z,951.4877
2023-05-15T13:41:46.209Z,951.5448
2023-05-15T13:42:46.821Z,951.5488
2023-05-15T13:43:46.823Z,951.5582
2023-05-15T13:44:47.556Z,951.5613
2023-05-15T13:45:47.937Z,951.5458
2023-05-15T13:46:48.924Z,951.5400
2023-05-15T13:47:49.893Z,951.5400
2023-05-15T13:48:51.026Z,951.5173
2023-05-15T13:49:53.200Z,951.5182
2023-05-15T13:50:53.883Z,951.5016
2023-05-15T13:51:54.239Z,951.4877
2023-05-15T13:52:56.259Z,951.4941
2023-05-15T13:53:59.836Z,951.4996
2023-05-15T14:01:35.637Z,951.5787
2023-05-15T14:02:36.821Z,951.5869
2023-05-15T14:04:07.704Z,951.5950
2023-05-15T14:13:56.899Z,951.5643
2023-05-15T14:14:57.534Z,951.5723
2023-05-15T14:15:58.267Z,951.5668
2023-05-15T14:16:59.155Z,951.5504
2023-05-15T14:18:01.795Z,951.5708
2023-05-15T14:29:01.028Z,951.5334
2023-05-15T14:30:02.417Z,951.5420
2023-05-15T14:33:06.290Z,951.5923
2023-05-15T14:34:06.407Z,951.5973
2023-05-15T14:35:07.096Z,951.6120
2023-05-15T14:36:08.081Z,951.6277
2023-05-15T14:38:09.721Z,951.6467
2023-05-15T14:39:11.598Z,951.6533
2023-05-15T14:40:13.653Z,951.6622
2023-05-15T14:41:13.862Z,951.6554
2023-05-15T14:42:15.871Z,951.6615
2023-05-15T14:43:17.291Z,951.6665
2023-05-15T14:44:19.497Z,951.6985
2023-05-15T14:48:22.238Z,951.7253
2023-05-15T14:49:22.376Z,951.7255
2023-05-15T14:50:24.060Z,951.7213
2023-05-15T14:51:26.388Z,951.7031
2023-05-15T14:52:26.763Z,951.7100
2023-05-15T14:53:28.204Z,951.7047
2023-05-15T14:54:29.439Z,951.7070
2023-05-15T14:55:32.116Z,951.6996
2023-05-15T14:56:32.429Z,951.6932
2023-05-15T14:57:34.427Z,951.6761
2023-05-15T14:58:35.182Z,951.6623
2023-05-15T14:59:35.615Z,951.6592
2023-05-15T15:00:37.728Z,951.6552
2023-05-15T15:01:38.153Z,951.6512
2023-05-15T15:02:39.163Z,951.6353
2023-05-15T15:03:40.522Z,951.6235
2023-05-15T15:04:41.047Z,951.6177
2023-05-15T15:05:41.974Z,951.6196
2023-05-15T15:15:53.466Z,951.6683
2023-05-15T15:16:55.287Z,951.6758
2023-05-15T15:17:57.592Z,951.6866
2023-05-15T15:19:59.090Z,951.7223
2023-05-15T15:21:00.681Z,951.7496
2023-05-15T15:23:02.968Z,951.8170
2023-05-15T15:24:04.701Z,951.8474
2023-05-15T15:25:05.748Z,951.8643
2023-05-15T15:26:06.374Z,951.8843
2023-05-15T15:27:06.685Z,951.8867
2023-05-15T15:32:50.031Z,951.9169
2023-05-15T15:33:51.778Z,951.9308
2023-05-15T15:34:52.158Z,951.9388
2023-05-15T15:35:52.251Z,951.9421
2023-05-15T15:36:53.204Z,951.9387
2023-05-15T15:37:53.401Z,951.9346
2023-05-15T15:41:56.620Z,951.9300
2023-05-15T15:42:57.355Z,951.9496
2023-05-15T15:43:58.016Z,951.9700
2023-05-15T15:44:59.119Z,951.9816
2023-05-15T15:45:59.499Z,951.9915
2023-05-15T15:47:01.579Z,951.9948
2023-05-15T15:48:02.106Z,951.9972
2023-05-15T15:56:24.088Z,952.0280
2023-05-15T15:57:26.177Z,952.0246
2023-05-15T15:58:27.181Z,952.0285
2023-05-15T15:59:28.389Z,952.0435
2023-05-15T16:02:32.848Z,952.0754
2023-05-15T16:07:35.613Z,952.0905
2023-05-15T16:08:36.226Z,952.0881
2023-05-15T16:09:36.755Z,952.0850
2023-05-15T16:10:37.529Z,952.0759
2023-05-15T16:11:37.940Z,952.0753
2023-05-15T16:12:39.064Z,952.0753
2023-05-15T16:13:41.392Z,952.0709
2023-05-15T16:14:42.106Z,952.0478
2023-05-15T16:15:43.747Z,952.0305
2023-05-15T16:16:44.908Z,952.0143
2023-05-15T16:22:29.020Z,951.9908
2023-05-15T16:23:30.685Z,951.9929
2023-05-15T16:24:32.935Z,951.9904
2023-05-15T16:25:35.144Z,951.9912
2023-05-15T16:26:36.442Z,951.9804
2023-05-15T16:27:36.849Z,951.9791
2023-05-15T16:28:37.401Z,951.9691
2023-05-15T16:29:39.122Z,951.9750
2023-05-15T16:30:49.085Z,951.9791
2023-05-15T16:33:13.447Z,952.0120
2023-05-15T16:34:14.481Z,952.0352
2023-05-15T16:35:16.779Z,952.0592
2023-05-15T16:36:17.442Z,952.0709
2023-05-15T16:37:19.154Z,952.0665
2023-05-15T16:38:20.896Z,952.0587
2023-05-15T16:39:23.143Z,952.0429
2023-05-15T16:42:26.213Z,952.0674
2023-05-15T16:51:30.865Z,952.0461
2023-05-15T16:54:33.530Z,952.0767
2023-05-15T16:55:34.980Z,952.0862
2023-05-15T16:56:36.702Z,952.0946
2023-05-15T16:57:37.620Z,952.1100
2023-05-15T16:58:38.874Z,952.1296
2023-05-15T16:59:39.350Z,952.1396
2023-05-15T17:00:42.040Z,952.1456
2023-05-15T17:01:43.365Z,952.1392
2023-05-15T17:02:44.242Z,952.1396
2023-05-15T17:03:46.191Z,952.1350
2023-05-15T17:04:46.741Z,952.1327
2023-05-15T17:05:48.044Z,952.1164
2023-05-15T17:06:49.079Z,952.1136
2023-05-15T17:07:49.247Z,952.1028
2023-05-15T17:08:49.467Z,952.0981
2023-05-15T17:09:51.624Z,952.1007
2023-05-15T17:10:53.750Z,952.1066
2023-05-15T17:11:56.495Z,952.1066
2023-05-15T17:13:57.893Z,952.1116
2023-05-15T17:24:09.123Z,952.2504
2023-05-15T17:25:11.366Z,952.2652
2023-05-15T17:26:12.326Z,952.2888
2023-05-15T17:27:15.882Z,952.3029
2023-05-15T17:30:18.079Z,952.3004
2023-05-15T17:32:21.926Z,952.2933
2023-05-15T17:33:21.986Z,952.2766
2023-05-15T17:34:23.804Z,952.2571
2023-05-15T17:35:26.017Z,952.2492
2023-05-15T17:36:25.879Z,952.2462
2023-05-15T17:37:26.738Z,952.2504
2023-05-15T17:38:27.428Z,952.2609
2023-05-15T17:39:28.294Z,952.2620
2023-05-15T17:40:29.879Z,952.2654
2023-05-15T17:41:31.742Z,952.2709
2023-05-15T17:42:33.401Z,952.2911
2023-05-15T17:43:33.807Z,952.3035
2023-05-15T17:45:35.589Z,952.3029
2023-05-15T17:46:36.822Z,952.2972
2023-05-15T17:47:49.915Z,952.2842
2023-05-15T17:49:09.984Z,952.2817
2023-05-15T17:50:10.631Z,952.2863
2023-05-15T17:51:12.073Z,952.2842
2023-05-15T17:52:18.886Z,952.2892
2023-05-15T17:53:14.493Z,952.3159
2023-05-15T17:54:16.338Z,952.2958
2023-05-15T17:55:17.848Z,952.2725
2023-05-15T17:56:18.412Z,952.2876
2023-05-15T17:57:19.848Z,952.3066
2023-05-15T18:10:31.282Z,952.2791
2023-05-15T18:11:31.849Z,952.2878
2023-05-15T18:12:32.277Z,952.2883
2023-05-15T18:13:32.942Z,952.2916
2023-05-15T18:14:33.424Z,952.2835
2023-05-15T18:15:34.559Z,952.2839
2023-05-15T18:16:34.745Z,952.2822
2023-05-15T18:17:36.858Z,952.2780
2023-05-15T18:18:37.090Z,952.2812
2023-05-15T18:27:48.120Z,952.2805
2023-05-15T18:30:20.751Z,952.2734
2023-05-15T18:31:23.493Z,952.2773
2023-05-15T18:32:23.694Z,952.2928
2023-05-15T18:33:23.688Z,952.2987
2023-05-15T18:34:25.347Z,952.3024
2023-05-15T18:35:27.354Z,952.2971
2023-05-15T18:36:27.871Z,952.3035
2023-05-15T18:37:28.540Z,952.3092
2023-05-15T18:38:29.151Z,952.3033
2023-05-15T18:39:30.527Z,952.3008
2023-05-15T18:40:32.077Z,952.3046
2023-05-15T18:41:34.393Z,952.3054
2023-05-15T18:42:34.812Z,952.3084
2023-05-15T18:43:36.913Z,952.3085
2023-05-15T18:44:38.581Z,952.3204
2023-05-15T18:45:38.900Z,952.3257
2023-05-15T18:46:39.388Z,952.3196
2023-05-15T18:47:41.063Z,952.3144
2023-05-15T18:48:42.072Z,952.3100
2023-05-15T18:49:42.268Z,952.3013
2023-05-15T18:50:44.011Z,952.2916
2023-05-15T18:51:45.415Z,952.2966
2023-05-15T18:52:47.109Z,952.3027
2023-05-15T18:53:47.470Z,952.3088
2023-05-15T18:54:49.506Z,952.3196
2023-05-15T18:57:22.990Z,952.3613
2023-05-15T18:58:23.595Z,952.3728
2023-05-15T18:59:24.834Z,952.3788
2023-05-15T19:00:37.096Z,952.3913
2023-05-15T19:05:00.497Z,952.4720
2023-05-15T19:06:01.226Z,952.4948
2023-05-15T19:07:03.207Z,952.5259
2023-05-15T19:08:04.871Z,952.5460
2023-05-15T19:09:05.874Z,952.5629
2023-05-15T19:10:06.908Z,952.5700
2023-05-15T19:11:08.818Z,952.5600
2023-05-15T19:12:09.522Z,952.5465
2023-05-15T19:13:09.639Z,952.5392
2023-05-15T19:14:10.752Z,952.5508
2023-05-15T19:15:11.715Z,952.5713
2023-05-15T19:16:13.142Z,952.5804
2023-05-15T19:17:14.373Z,952.6004
2023-05-15T19:18:15.366Z,952.6157
2023-05-15T19:19:16.251Z,952.6308
2023-05-15T19:20:17.369Z,952.6456
2023-05-15T19:21:17.618Z,952.6513
2023-05-15T19:24:21.210Z,952.6575
2023-05-15T19:25:25.809Z,952.6588
2023-05-15T19:26:24.479Z,952.6600
2023-05-15T19:27:26.270Z,952.6600
2023-05-15T19:34:31.309Z,952.6591
2023-05-15T19:35:35.885Z,952.6608
2023-05-15T19:36:35.528Z,952.6685
2023-05-15T19:37:35.601Z,952.6673
2023-05-15T19:38:37.372Z,952.6708
2023-05-15T19:39:39.161Z,952.6750
2023-05-15T19:40:41.182Z,952.6859
2023-05-15T19:41:48.900Z,952.7035
2023-05-15T19:44:15.829Z,952.7450
2023-05-15T19:45:16.473Z,952.7496
2023-05-15T19:46:18.678Z,952.7521
2023-05-15T19:47:20.198Z,952.7596
2023-05-15T19:48:22.058Z,952.7675
2023-05-15T19:49:23.240Z,952.7817
2023-05-15T19:51:25.365Z,952.8115
2023-05-15T19:52:27.750Z,952.8192
2023-05-15T19:53:28.602Z,952.8326
2023-05-15T20:00:37.271Z,952.8154
2023-05-15T20:02:38.683Z,952.8287
2023-05-15T20:04:42.750Z,952.8558
2023-05-15T20:05:43.819Z,952.8812
2023-05-15T20:06:43.916Z,952.9105
2023-05-15T20:07:45.942Z,952.9263